Time;durP1;ratioP1;P1;durP2;ratioP2;P2;SDS_P1;SDS_P2;PMS_P1;PMS_P2;Temp;Humidity;BMP_temperature;BMP_pressure;BME280_temperature;BME280_humidity;BME280_pressure;Samples;Min_cycle;Max_cycle;Signal;HPM_P1;HPM_P2
2023/06/09 00:02:18;;;;;;;9.50;3.30;;;;;;;15.26;91.13;95393.98;106718;1275;22815;-77
2023/06/09 00:04:48;;;;;;;6.80;3.10;;;;;;;15.30;92.02;95394.52;106732;1275;22509;-77
2023/06/09 00:07:16;;;;;;;5.00;3.40;;;;;;;15.33;91.49;95396.36;106681;1275;24416;-77
2023/06/09 00:09:45;;;;;;;9.30;3.20;;;;;;;15.34;90.95;95403.75;106787;1275;25246;-77
2023/06/09 00:12:14;;;;;;;5.70;3.50;;;;;;;15.23;90.62;95405.08;106745;1275;24259;-77
2023/06/09 00:14:43;;;;;;;10.70;3.10;;;;;;;15.13;90.27;95412.75;106690;1275;23409;-77
2023/06/09 00:17:13;;;;;;;5.60;3.00;;;;;;;15.05;90.40;95415.16;106783;1273;22502;-77
2023/06/09 00:19:42;;;;;;;12.50;3.60;;;;;;;15.02;90.72;95415.27;106785;1275;22517;-77
2023/06/09 00:22:13;;;;;;;5.90;3.40;;;;;;;15.03;91.67;95416.30;106740;1275;22651;-77
2023/06/09 00:24:45;;;;;;;6.00;3.10;;;;;;;15.12;91.99;95412.23;106706;1275;22517;-76
2023/06/09 00:27:13;;;;;;;9.50;2.80;;;;;;;15.14;91.67;95415.02;106723;1275;22513;-77
2023/06/09 00:29:41;;;;;;;6.40;3.60;;;;;;;15.17;91.78;95412.77;106678;1266;22521;-77
2023/06/09 00:32:11;;;;;;;6.10;2.90;;;;;;;15.19;91.48;95413.04;106717;1275;22532;-77
2023/06/09 00:34:40;;;;;;;6.10;3.30;;;;;;;15.17;91.40;95411.55;106715;1275;22520;-77
2023/06/09 00:37:09;;;;;;;5.30;2.70;;;;;;;15.22;91.71;95412.41;106709;1275;22510;-77
2023/06/09 00:39:37;;;;;;;6.90;3.20;;;;;;;15.17;90.90;95414.36;106752;1275;22533;-77
2023/06/09 00:42:07;;;;;;;5.50;3.20;;;;;;;15.07;91.29;95413.48;106681;1275;25303;-77
2023/06/09 00:44:35;;;;;;;5.60;3.30;;;;;;;15.01;91.70;95413.02;106818;1263;24322;-77
2023/06/09 00:47:06;;;;;;;3.50;2.60;;;;;;;15.02;91.78;95414.59;106611;1275;24231;-77
2023/06/09 00:49:35;;;;;;;4.90;3.10;;;;;;;15.06;92.15;95412.13;106716;1275;25369;-77
2023/06/09 00:52:05;;;;;;;5.70;2.80;;;;;;;15.06;92.07;95413.18;106741;1274;22680;-77
2023/06/09 00:54:34;;;;;;;7.00;3.30;;;;;;;15.04;91.70;95412.92;106796;1275;24259;-76
2023/06/09 00:57:05;;;;;;;6.00;3.20;;;;;;;15.02;92.21;95414.06;106637;1275;22540;-77
2023/06/09 00:59:35;;;;;;;6.50;3.00;;;;;;;15.08;92.70;95409.04;106732;1275;23882;-77
2023/06/09 01:02:05;;;;;;;5.00;3.10;;;;;;;15.13;92.60;95407.61;106651;1275;22515;-71
2023/06/09 01:04:35;;;;;;;5.10;3.10;;;;;;;15.15;91.99;95407.00;106807;1275;22513;-77
2023/06/09 01:07:07;;;;;;;4.90;3.20;;;;;;;15.17;92.11;95408.34;107044;1275;22521;-77
2023/06/09 01:09:43;;;;;;;6.80;3.30;;;;;;;15.14;91.69;95408.61;106730;1275;25315;-76
2023/06/09 01:12:40;;;;;;;7.40;3.30;;;;;;;15.12;91.52;95410.81;106755;1271;22521;-76
2023/06/09 01:15:20;;;;;;;9.20;3.10;;;;;;;15.12;91.76;95411.88;106932;1275;22511;-77
2023/06/09 01:17:57;;;;;;;10.70;3.40;;;;;;;15.12;92.04;95411.38;106611;1275;22657;-77
2023/06/09 01:20:48;;;;;;;5.80;2.90;;;;;;;15.10;91.87;95414.09;106756;1275;24370;-76
2023/06/09 01:23:32;;;;;;;7.00;3.50;;;;;;;15.04;92.42;95414.13;107070;1275;22525;-76
2023/06/09 01:26:01;;;;;;;4.40;3.40;;;;;;;15.07;92.73;95413.88;106932;1275;24210;-76
2023/06/09 01:28:30;;;;;;;9.40;3.20;;;;;;;15.12;93.09;95414.20;106725;1263;23905;-77
2023/06/09 01:31:00;;;;;;;7.80;3.40;;;;;;;15.16;93.07;95411.90;106876;1275;22552;-76
2023/06/09 01:33:29;;;;;;;8.30;3.80;;;;;;;15.18;92.34;95410.07;106810;1264;25210;-76
2023/06/09 01:35:58;;;;;;;8.20;4.70;;;;;;;15.15;92.50;95413.02;106835;1275;25308;-76
2023/06/09 01:38:27;;;;;;;6.90;3.30;;;;;;;15.17;92.30;95409.41;106724;1275;22635;-76
2023/06/09 01:40:55;;;;;;;6.50;3.70;;;;;;;15.14;92.06;95409.49;106736;1272;22740;-76
2023/06/09 01:43:24;;;;;;;10.40;3.90;;;;;;;15.14;92.56;95407.72;106706;1275;24465;-76
2023/06/09 01:45:52;;;;;;;6.90;3.40;;;;;;;15.21;93.10;95404.98;106611;1275;25372;-76
2023/06/09 01:49:00;;;;;;;6.70;3.20;;;;;;;15.25;92.52;95402.89;106771;1275;22628;-77
2023/06/09 01:51:56;;;;;;;9.40;3.60;;;;;;;15.22;92.34;95397.31;106684;1275;25319;-76
2023/06/09 01:54:31;;;;;;;7.70;3.50;;;;;;;15.20;92.29;95396.19;106737;1275;22666;-77
2023/06/09 01:57:23;;;;;;;6.70;3.80;;;;;;;15.22;92.60;95394.14;106662;1274;22542;-77
2023/06/09 02:00:00;;;;;;;7.20;4.10;;;;;;;15.26;92.96;95387.95;106938;1275;23133;-77
2023/06/09 02:02:33;;;;;;;12.00;4.80;;;;;;;15.31;92.73;95389.70;106734;1275;26509;-77
2023/06/09 02:05:05;;;;;;;5.60;4.70;;;;;;;15.34;92.38;95389.74;107018;1275;25278;-77
2023/06/09 02:07:34;;;;;;;6.10;4.60;;;;;;;15.26;91.51;95400.01;106888;1275;23894;-76
2023/06/09 02:10:03;;;;;;;6.40;4.00;;;;;;;15.12;92.31;95412.23;106691;1275;25341;-77
2023/06/09 02:12:33;;;;;;;6.90;3.50;;;;;;;15.07;92.41;95414.91;106686;1275;22656;-77
2023/06/09 02:15:04;;;;;;;6.30;3.70;;;;;;;15.08;93.16;95410.61;106683;1275;22734;-76
2023/06/09 02:17:34;;;;;;;5.00;3.50;;;;;;;15.17;93.66;95405.15;106714;1275;25422;-77
2023/06/09 02:20:05;;;;;;;7.10;4.00;;;;;;;15.21;92.96;95406.05;106723;1275;22530;-77
2023/06/09 02:22:35;;;;;;;6.30;3.90;;;;;;;15.21;93.30;95401.44;106766;1275;22582;-77
2023/06/09 02:25:07;;;;;;;6.90;4.00;;;;;;;15.24;93.21;95403.44;106646;1275;25239;-77
2023/06/09 02:27:36;;;;;;;5.30;3.90;;;;;;;15.27;93.28;95398.72;106597;1275;24196;-77
2023/06/09 02:30:05;;;;;;;5.80;3.50;;;;;;;15.29;93.21;95394.73;106606;1275;23000;-76
2023/06/09 02:32:34;;;;;;;6.30;3.60;;;;;;;15.24;92.50;95389.80;106777;1275;24355;-77
2023/06/09 02:35:04;;;;;;;4.70;4.00;;;;;;;15.16;92.14;95386.23;106631;1275;22523;-77
2023/06/09 02:37:35;;;;;;;6.80;3.30;;;;;;;15.09;92.45;95388.42;106691;1275;25195;-76
2023/06/09 02:40:04;;;;;;;6.90;3.60;;;;;;;15.00;93.38;95393.41;106675;1275;22743;-77
2023/06/09 02:42:33;;;;;;;5.60;3.50;;;;;;;15.01;93.73;95394.95;106753;1275;22517;-77
2023/06/09 02:45:02;;;;;;;5.10;3.20;;;;;;;15.09;94.30;95389.48;106745;1275;25306;-76
2023/06/09 02:47:31;;;;;;;6.90;3.30;;;;;;;15.14;93.46;95388.44;106668;1275;24224;-76
2023/06/09 02:50:01;;;;;;;4.70;3.40;;;;;;;15.10;92.69;95390.17;106713;1275;22544;-77
2023/06/09 02:52:32;;;;;;;10.10;3.50;;;;;;;15.08;93.14;95385.65;106678;1275;22514;-77
2023/06/09 02:55:02;;;;;;;3.70;3.00;;;;;;;15.08;93.03;95386.70;106708;1275;22517;-77
2023/06/09 02:57:31;;;;;;;5.00;3.40;;;;;;;15.04;92.73;95388.80;106587;1275;24198;-77
2023/06/09 03:00:00;;;;;;;10.40;3.60;;;;;;;15.02;93.30;95387.48;106556;1275;22516;-77
2023/06/09 03:02:30;;;;;;;4.30;3.30;;;;;;;15.09;93.93;95387.92;106749;1275;22526;-77
2023/06/09 03:04:59;;;;;;;3.90;3.60;;;;;;;15.13;93.58;95383.66;106788;1275;22878;-77
2023/06/09 03:07:27;;;;;;;6.20;3.90;;;;;;;15.09;92.99;95381.52;106709;1275;22551;-77
2023/06/09 03:09:56;;;;;;;6.00;3.70;;;;;;;15.07;93.35;95386.20;106605;1275;25330;-77
2023/06/09 03:12:24;;;;;;;8.90;4.30;;;;;;;15.10;93.30;95383.09;106708;1275;22653;-76
2023/06/09 03:14:53;;;;;;;11.10;4.50;;;;;;;15.06;93.07;95380.23;106688;1275;22563;-76
2023/06/09 03:17:21;;;;;;;10.50;3.50;;;;;;;15.14;94.26;95382.94;106612;1275;24199;-77
2023/06/09 03:19:51;;;;;;;4.80;3.40;;;;;;;15.25;93.87;95382.31;106767;1275;22636;-77
2023/06/09 03:22:20;;;;;;;6.90;3.50;;;;;;;15.22;92.81;95383.53;106272;1275;494652;-77
2023/06/09 03:24:49;;;;;;;4.50;3.00;;;;;;;15.19;92.92;95382.41;106613;1275;24341;-76
2023/06/09 03:27:18;;;;;;;4.30;3.30;;;;;;;15.25;93.63;95382.52;106655;1264;24225;-76
2023/06/09 03:29:46;;;;;;;3.90;3.10;;;;;;;15.24;92.76;95382.52;106612;1275;24381;-76
2023/06/09 03:32:15;;;;;;;6.60;3.70;;;;;;;15.16;92.34;95380.56;106745;1275;22524;-77
2023/06/09 03:34:43;;;;;;;3.70;3.10;;;;;;;15.19;93.37;95382.02;106760;1275;22521;-77
2023/06/09 03:37:14;;;;;;;4.50;3.10;;;;;;;15.29;93.59;95378.62;106682;1275;22546;-77
2023/06/09 03:39:43;;;;;;;5.70;3.50;;;;;;;15.29;93.06;95383.38;106769;1275;24228;-77
2023/06/09 03:42:11;;;;;;;6.60;3.50;;;;;;;15.30;93.64;95387.23;106735;1275;22507;-77
2023/06/09 03:44:40;;;;;;;11.10;3.60;;;;;;;15.42;94.10;95386.05;106607;1275;22665;-77
2023/06/09 03:47:09;;;;;;;7.50;3.40;;;;;;;15.51;93.79;95384.78;106585;1275;22639;-76
2023/06/09 03:49:39;;;;;;;7.90;3.30;;;;;;;15.62;93.50;95381.88;106771;1275;25232;-76
2023/06/09 03:52:07;;;;;;;12.40;3.80;;;;;;;15.69;93.07;95386.91;106770;1275;25565;-76
2023/06/09 03:54:36;;;;;;;4.40;3.20;;;;;;;15.70;92.31;95388.13;106687;1275;22514;-76
2023/06/09 03:57:06;;;;;;;8.20;3.10;;;;;;;15.71;92.24;95393.59;106630;1275;22517;-76
2023/06/09 03:59:34;;;;;;;3.90;2.90;;;;;;;15.65;92.14;95389.71;106748;1275;22642;-76
2023/06/09 04:02:03;;;;;;;5.50;3.50;;;;;;;15.71;92.45;95392.52;106756;1275;24225;-76
2023/06/09 04:04:32;;;;;;;4.80;3.40;;;;;;;15.74;92.71;95392.04;106778;1275;22562;-75
2023/06/09 04:07:01;;;;;;;9.90;3.50;;;;;;;15.80;92.79;95389.50;106681;1275;22507;-76
2023/06/09 04:09:30;;;;;;;6.20;3.20;;;;;;;15.82;92.04;95389.58;106747;1275;24254;-76
2023/06/09 04:11:58;;;;;;;3.80;3.30;;;;;;;15.77;91.77;95395.09;106674;1275;24435;-76
2023/06/09 04:14:27;;;;;;;9.40;3.20;;;;;;;15.80;92.66;95393.73;106792;1267;22633;-76
2023/06/09 04:16:56;;;;;;;6.10;3.40;;;;;;;15.89;93.08;95397.25;106832;1275;25343;-76
2023/06/09 04:19:25;;;;;;;8.70;4.10;;;;;;;16.02;93.07;95397.60;106701;1275;24252;-76
2023/06/09 04:21:53;;;;;;;6.00;3.50;;;;;;;16.02;91.58;95396.35;106643;1275;22528;-76
2023/06/09 04:24:22;;;;;;;5.30;3.60;;;;;;;16.01;91.88;95400.12;106606;1275;22565;-78
2023/06/09 04:26:53;;;;;;;6.10;3.90;;;;;;;16.02;91.53;95400.42;106622;1275;25427;-72
2023/06/09 04:29:23;;;;;;;5.50;3.50;;;;;;;15.95;90.93;95403.21;106737;1275;22530;-75
2023/06/09 04:31:58;;;;;;;5.00;3.70;;;;;;;15.93;91.43;95402.77;106733;1275;25175;-79
2023/06/09 04:34:29;;;;;;;4.70;3.50;;;;;;;15.91;91.71;95404.61;106623;1275;24251;-78
2023/06/09 04:36:59;;;;;;;6.10;3.90;;;;;;;15.95;92.69;95400.02;106804;1275;25334;-79
2023/06/09 04:39:28;;;;;;;5.50;3.90;;;;;;;16.00;92.43;95402.10;106827;1275;22544;-79
2023/06/09 04:41:57;;;;;;;9.30;4.10;;;;;;;16.03;92.40;95403.21;106784;1261;22525;-79
2023/06/09 04:44:25;;;;;;;4.30;3.90;;;;;;;16.08;92.53;95401.25;106734;1275;24255;-79
2023/06/09 04:46:55;;;;;;;8.50;4.20;;;;;;;16.12;92.13;95397.86;106759;1275;22521;-78
2023/06/09 04:49:23;;;;;;;4.10;3.70;;;;;;;16.10;91.56;95400.08;106730;1275;22524;-78
2023/06/09 04:51:54;;;;;;;10.80;4.00;;;;;;;16.15;92.30;95402.00;106673;1275;22575;-78
2023/06/09 04:54:33;;;;;;;5.80;3.80;;;;;;;16.25;92.19;95406.90;106693;1275;25309;-78
2023/06/09 04:57:05;;;;;;;4.50;3.90;;;;;;;16.21;90.98;95408.84;106703;1275;22546;-78
2023/06/09 04:59:34;;;;;;;7.70;4.00;;;;;;;16.12;90.47;95407.11;106712;1275;24056;-70
2023/06/09 05:02:02;;;;;;;6.30;4.20;;;;;;;16.04;90.97;95411.02;106562;1275;22518;-77
2023/06/09 05:04:32;;;;;;;5.10;3.80;;;;;;;16.07;91.66;95406.77;106501;1275;25396;-80
2023/06/09 05:07:01;;;;;;;5.00;3.70;;;;;;;16.16;91.97;95407.79;106693;1275;24304;-70
2023/06/09 05:09:30;;;;;;;6.60;3.90;;;;;;;16.23;91.71;95413.02;106729;1268;24283;-79
2023/06/09 05:11:59;;;;;;;4.40;3.80;;;;;;;16.25;91.41;95414.69;106653;1275;22517;-76
2023/06/09 05:14:27;;;;;;;9.90;3.60;;;;;;;16.31;91.56;95420.67;106686;1275;22571;-73
2023/06/09 05:17:02;;;;;;;9.90;4.80;;;;;;;16.27;90.91;95411.05;106526;1275;22634;-76
2023/06/09 05:19:31;;;;;;;4.60;3.60;;;;;;;16.22;91.09;95412.17;106647;1275;22518;-80
2023/06/09 05:21:59;;;;;;;5.60;4.00;;;;;;;16.27;91.54;95407.67;106598;1275;22517;-77
2023/06/09 05:24:28;;;;;;;5.70;4.10;;;;;;;16.30;91.45;95407.91;106914;1275;22786;-76
2023/06/09 05:26:57;;;;;;;6.60;4.20;;;;;;;16.33;91.83;95409.89;107025;1266;22520;-70
2023/06/09 05:29:25;;;;;;;9.00;5.00;;;;;;;16.39;92.08;95409.12;106897;1275;22536;-76
2023/06/09 05:31:54;;;;;;;5.40;3.90;;;;;;;16.39;91.27;95409.29;107046;1275;24191;-81
2023/06/09 05:34:23;;;;;;;8.40;4.50;;;;;;;16.32;90.69;95410.31;106968;1275;25465;-77
2023/06/09 05:36:52;;;;;;;6.60;4.20;;;;;;;16.33;91.62;95414.17;107003;1264;22521;-78
2023/06/09 05:39:20;;;;;;;5.30;4.30;;;;;;;16.40;91.80;95411.89;106764;1269;24220;-78
2023/06/09 05:41:49;;;;;;;7.70;4.50;;;;;;;16.44;91.53;95418.11;106953;1275;25322;-77
2023/06/09 05:44:19;;;;;;;12.30;4.30;;;;;;;16.55;92.17;95416.54;106708;1275;22814;-74
2023/06/09 05:46:47;;;;;;;8.80;4.40;;;;;;;16.66;91.92;95417.66;106725;1275;22517;-76
2023/06/09 05:49:16;;;;;;;7.40;4.60;;;;;;;16.76;91.61;95416.34;106684;1275;25332;-74
2023/06/09 05:51:44;;;;;;;7.60;4.10;;;;;;;16.77;90.73;95419.31;106829;1275;22518;-76
2023/06/09 05:54:13;;;;;;;12.90;4.60;;;;;;;16.77;90.91;95421.29;106697;1275;22591;-81
2023/06/09 05:56:44;;;;;;;17.60;4.80;;;;;;;16.91;91.92;95418.89;106725;1275;22517;-76
2023/06/09 05:59:13;;;;;;;9.30;3.80;;;;;;;17.05;91.77;95415.55;106684;1275;22691;-73
2023/06/09 06:01:42;;;;;;;9.40;4.10;;;;;;;17.17;91.67;95414.96;106944;1275;22633;-74
2023/06/09 06:04:10;;;;;;;8.80;4.00;;;;;;;17.24;90.77;95413.05;106510;1272;25698;-74
2023/06/09 06:06:39;;;;;;;6.40;3.80;;;;;;;17.29;90.57;95409.79;106612;1275;22537;-80
2023/06/09 06:09:08;;;;;;;9.80;3.90;;;;;;;17.39;90.54;95408.78;106627;1275;22475;-80
2023/06/09 06:11:36;;;;;;;10.10;4.20;;;;;;;17.48;90.42;95412.80;106627;1270;24372;-79
2023/06/09 06:14:07;;;;;;;5.00;3.60;;;;;;;17.60;89.70;95416.14;106595;1273;25105;-79
2023/06/09 06:16:36;;;;;;;4.40;3.60;;;;;;;17.67;89.50;95419.16;106509;1272;24031;-76
2023/06/09 06:19:06;;;;;;;6.20;3.70;;;;;;;17.74;88.22;95417.41;106605;1274;24287;-76
2023/06/09 06:21:36;;;;;;;5.00;4.10;;;;;;;17.74;87.38;95418.10;106770;1267;22735;-69
2023/06/09 06:24:05;;;;;;;6.50;4.00;;;;;;;17.73;87.34;95416.36;106681;1272;25854;-69
2023/06/09 06:26:33;;;;;;;7.50;4.10;;;;;;;17.80;87.95;95411.07;106577;1275;22567;-86
2023/06/09 06:29:02;;;;;;;6.40;3.70;;;;;;;17.75;86.11;95409.48;106495;1275;24223;-71
2023/06/09 06:31:31;;;;;;;4.00;3.40;;;;;;;17.66;85.56;95408.51;107026;1275;22517;-78
2023/06/09 06:34:00;;;;;;;6.20;3.60;;;;;;;17.57;85.52;95409.00;106554;1275;22524;-71
2023/06/09 06:36:28;;;;;;;6.30;3.80;;;;;;;17.56;86.08;95412.05;106584;1275;25364;-71
2023/06/09 06:38:56;;;;;;;3.80;3.30;;;;;;;17.59;86.28;95417.39;106556;1275;23580;-74
2023/06/09 06:41:25;;;;;;;8.60;3.50;;;;;;;17.63;85.68;95415.97;106604;1275;22513;-73
2023/06/09 06:43:53;;;;;;;6.90;3.70;;;;;;;17.61;87.02;95414.29;106724;1275;24333;-71
2023/06/09 06:46:22;;;;;;;6.30;3.50;;;;;;;17.73;87.80;95411.91;106730;1275;24196;-73
2023/06/09 06:48:50;;;;;;;4.70;3.20;;;;;;;17.89;87.79;95410.81;106621;1275;22529;-70
2023/06/09 06:51:20;;;;;;;6.50;3.40;;;;;;;18.07;87.49;95412.38;106595;1267;25465;-77
2023/06/09 06:53:48;;;;;;;7.20;3.40;;;;;;;18.18;86.45;95413.40;106634;1270;22529;-75
2023/06/09 06:56:16;;;;;;;6.40;3.10;;;;;;;18.31;85.22;95415.59;106522;1270;22539;-75
2023/06/09 06:58:44;;;;;;;5.50;3.40;;;;;;;18.43;86.08;95413.92;106605;1267;25366;-75
2023/06/09 07:01:17;;;;;;;5.40;3.50;;;;;;;18.61;86.31;95412.96;106656;1272;22630;-80
2023/06/09 07:03:46;;;;;;;7.10;3.40;;;;;;;18.78;86.09;95409.20;106709;1272;22934;-77
2023/06/09 07:06:16;;;;;;;6.00;3.50;;;;;;;18.91;85.06;95405.34;106641;1273;24199;-84
2023/06/09 07:08:45;;;;;;;8.00;4.50;;;;;;;19.00;84.67;95408.58;106611;1269;24391;-74
2023/06/09 07:11:13;;;;;;;8.80;4.80;;;;;;;19.10;84.43;95408.96;106636;1270;25268;-83
2023/06/09 07:13:41;;;;;;;5.70;4.60;;;;;;;19.16;84.22;95410.91;106593;1272;25334;-81
2023/06/09 07:16:10;;;;;;;7.20;4.60;;;;;;;19.18;83.25;95411.17;106582;1272;22570;-72
2023/06/09 07:18:38;;;;;;;7.00;4.40;;;;;;;19.09;81.52;95407.73;106608;1273;24481;-76
2023/06/09 07:21:07;;;;;;;6.30;4.00;;;;;;;19.00;82.47;95405.56;106802;1270;24193;-77
2023/06/09 07:23:35;;;;;;;4.80;4.30;;;;;;;19.03;83.47;95408.80;106553;1273;22524;-73
2023/06/09 07:26:03;;;;;;;10.50;4.50;;;;;;;19.03;82.86;95406.10;106598;1272;22517;-70
2023/06/09 07:28:32;;;;;;;9.40;4.50;;;;;;;18.99;83.17;95402.91;106627;1272;22637;-78
2023/06/09 07:31:00;;;;;;;7.10;4.60;;;;;;;19.00;83.24;95400.92;106467;1275;25318;-68
2023/06/09 07:33:32;;;;;;;6.70;4.20;;;;;;;18.99;83.31;95400.27;106423;1270;24220;-70
2023/06/09 07:36:00;;;;;;;7.50;4.30;;;;;;;18.95;83.40;95400.99;107220;1272;24252;-69
2023/06/09 07:38:28;;;;;;;7.40;4.60;;;;;;;18.96;83.15;95400.27;106614;1267;24384;-72
2023/06/09 07:40:57;;;;;;;5.60;4.20;;;;;;;18.94;82.83;95404.81;106551;1267;22535;-72
2023/06/09 07:43:25;;;;;;;6.90;3.50;;;;;;;18.90;82.70;95409.45;106532;1276;25268;-66
2023/06/09 07:45:54;;;;;;;4.30;3.40;;;;;;;18.86;82.33;95410.04;106737;1275;22629;-68
2023/06/09 07:48:22;;;;;;;5.00;3.30;;;;;;;18.81;82.33;95413.02;106988;1275;24306;-67
2023/06/09 07:50:52;;;;;;;6.40;3.50;;;;;;;18.74;82.32;95415.67;106760;1275;24218;-68
2023/06/09 07:53:29;;;;;;;8.00;4.30;;;;;;;18.76;82.95;95411.66;106984;1275;22705;-79
2023/06/09 07:55:58;;;;;;;9.20;5.30;;;;;;;18.82;83.35;95411.85;106740;1275;24216;-69
2023/06/09 07:58:26;;;;;;;9.50;3.90;;;;;;;18.90;83.50;95411.41;106576;1266;22652;-74
2023/06/09 08:00:55;;;;;;;9.10;3.90;;;;;;;18.96;83.15;95410.20;106645;1273;22527;-67
2023/06/09 08:03:23;;;;;;;8.60;3.60;;;;;;;19.05;83.40;95411.73;106640;1275;22521;-66
2023/06/09 08:05:52;;;;;;;7.60;3.50;;;;;;;19.15;83.47;95416.31;106652;1275;22633;-67
2023/06/09 08:08:20;;;;;;;4.70;3.10;;;;;;;19.25;83.39;95411.66;106697;1275;22525;-69
2023/06/09 08:10:49;;;;;;;8.70;2.90;;;;;;;19.36;83.01;95410.52;106700;1275;22520;-70
2023/06/09 08:13:17;;;;;;;7.80;3.40;;;;;;;19.51;83.09;95412.71;106558;1272;22535;-71
2023/06/09 08:15:45;;;;;;;6.40;3.00;;;;;;;19.66;82.20;95410.79;106562;1275;25210;-67
2023/06/09 08:18:13;;;;;;;8.60;2.60;;;;;;;19.77;81.60;95415.52;106543;1275;22931;-71
2023/06/09 08:20:42;;;;;;;4.50;3.10;;;;;;;19.95;81.77;95417.88;106500;1272;25232;-73
2023/06/09 08:23:10;;;;;;;7.30;3.30;;;;;;;20.12;81.05;95419.42;106543;1273;22559;-78
2023/06/09 08:25:38;;;;;;;7.00;3.20;;;;;;;20.23;80.63;95415.52;106611;1275;22649;-76
2023/06/09 08:28:09;;;;;;;4.60;3.00;;;;;;;20.33;80.30;95415.99;106660;1275;22559;-75
2023/06/09 08:30:38;;;;;;;10.50;3.70;;;;;;;20.42;78.66;95411.02;106766;1275;22685;-73
2023/06/09 08:33:06;;;;;;;6.50;3.60;;;;;;;20.59;78.17;95411.80;106745;1275;22587;-74
2023/06/09 08:35:34;;;;;;;6.40;3.90;;;;;;;20.89;78.09;95404.02;106611;1275;25417;-76
2023/06/09 08:38:03;;;;;;;7.80;3.70;;;;;;;21.22;75.93;95407.69;106718;1275;25466;-84
2023/06/09 08:40:31;;;;;;;9.70;3.90;;;;;;;21.51;73.66;95403.14;106636;1275;22526;-76
2023/06/09 08:43:02;;;;;;;7.20;3.50;;;;;;;21.67;72.91;95404.66;106767;1275;22765;-73
2023/06/09 08:45:33;;;;;;;5.80;3.20;;;;;;;21.76;69.72;95403.73;106773;1275;24273;-70
2023/06/09 08:48:04;;;;;;;4.80;3.70;;;;;;;21.75;69.31;95400.00;106845;1275;25324;-72
2023/06/09 08:50:40;;;;;;;4.30;3.40;;;;;;;21.69;69.53;95400.56;106718;1275;22871;-71
2023/06/09 08:53:12;;;;;;;6.40;3.90;;;;;;;21.56;69.05;95399.06;106683;1275;24257;-76
2023/06/09 08:55:41;;;;;;;5.50;3.90;;;;;;;21.43;68.44;95392.05;106675;1275;24893;-74
2023/06/09 08:58:11;;;;;;;5.30;4.00;;;;;;;21.37;69.22;95392.45;106955;1275;24230;-72
2023/06/09 09:00:41;;;;;;;4.50;3.70;;;;;;;21.31;69.48;95390.09;106622;1275;24352;-77
2023/06/09 09:03:09;;;;;;;5.90;4.10;;;;;;;21.24;69.52;95388.62;106883;1275;22507;-74
2023/06/09 09:05:38;;;;;;;6.70;4.30;;;;;;;21.21;70.06;95387.02;106740;1275;22508;-70
2023/06/09 09:08:08;;;;;;;4.80;3.80;;;;;;;21.24;70.82;95384.33;106641;1275;25455;-72
2023/06/09 09:10:39;;;;;;;4.30;3.50;;;;;;;21.21;70.01;95381.10;106769;1275;22667;-68
2023/06/09 09:13:12;;;;;;;6.10;5.40;;;;;;;21.13;68.82;95381.05;106747;1275;25306;-76
2023/06/09 09:15:51;;;;;;;5.40;4.50;;;;;;;21.02;68.79;95385.52;106677;1275;22557;-72
2023/06/09 09:18:22;;;;;;;6.80;4.70;;;;;;;20.93;68.76;95385.55;106722;1275;22521;-71
2023/06/09 09:20:50;;;;;;;8.90;4.50;;;;;;;20.89;68.84;95389.90;106594;1275;22507;-71
2023/06/09 09:23:31;;;;;;;6.20;4.30;;;;;;;20.85;68.57;95388.02;106436;1275;22530;-73
2023/06/09 09:26:04;;;;;;;10.30;4.10;;;;;;;20.82;69.43;95383.92;106639;1275;22517;-76
2023/06/09 09:28:39;;;;;;;;;;;;;;;20.80;68.77;95383.89;106576;1275;25246;-71
2023/06/09 09:31:08;;;;;;;5.60;4.70;;;;;;;20.75;69.93;95385.03;106808;1275;22636;-72
2023/06/09 09:33:36;;;;;;;9.80;4.40;;;;;;;20.83;70.91;95386.91;107021;1275;23870;-73
2023/06/09 09:36:09;;;;;;;5.70;4.10;;;;;;;20.86;71.22;95386.35;106649;1275;22640;-73
2023/06/09 09:38:42;;;;;;;;;;;;;;;20.87;71.29;95387.55;106887;1275;22533;-75
2023/06/09 09:41:14;;;;;;;8.20;3.70;;;;;;;20.83;70.89;95385.64;106940;1275;22511;-74
2023/06/09 09:43:46;;;;;;;4.70;3.30;;;;;;;20.83;71.29;95384.94;106742;1275;26435;-73
2023/06/09 09:46:19;;;;;;;6.80;4.10;;;;;;;20.75;70.81;95380.77;106867;1275;22517;-74
2023/06/09 09:48:49;;;;;;;7.80;4.20;;;;;;;20.66;71.73;95384.00;106747;1275;25323;-75
2023/06/09 09:51:23;;;;;;;6.30;4.00;;;;;;;20.57;71.76;95384.03;106787;1275;24199;-75
2023/06/09 09:53:51;;;;;;;7.40;4.30;;;;;;;20.51;72.95;95384.55;106732;1275;24225;-75
2023/06/09 09:56:23;;;;;;;4.90;4.10;;;;;;;20.48;72.57;95383.08;106741;1275;25482;-75
2023/06/09 09:58:53;;;;;;;8.60;4.40;;;;;;;20.47;71.90;95381.18;106755;1275;22575;-74
2023/06/09 10:01:24;;;;;;;5.80;3.50;;;;;;;20.47;71.57;95382.30;106813;1275;22554;-74
2023/06/09 10:03:54;;;;;;;4.80;3.10;;;;;;;20.54;71.76;95383.64;107055;1275;24328;-74
2023/06/09 10:06:29;;;;;;;5.80;3.80;;;;;;;20.68;71.93;95382.64;106829;1275;24198;-74
2023/06/09 10:08:58;;;;;;;8.00;3.60;;;;;;;20.82;71.77;95386.21;106719;1275;24196;-75
2023/06/09 10:11:31;;;;;;;4.90;3.10;;;;;;;21.04;71.93;95382.74;106719;1275;22537;-75
2023/06/09 10:14:00;;;;;;;3.70;3.10;;;;;;;21.27;70.30;95378.60;106754;1263;23954;-74
2023/06/09 10:16:29;;;;;;;5.00;2.90;;;;;;;21.54;70.24;95378.28;106568;1275;22521;-75
2023/06/09 10:18:58;;;;;;;6.50;3.00;;;;;;;21.70;69.96;95378.33;106714;1275;22516;-76
2023/06/09 10:21:27;;;;;;;4.30;2.70;;;;;;;21.68;69.30;95377.71;106752;1275;23815;-76
2023/06/09 10:23:56;;;;;;;5.40;3.00;;;;;;;21.66;68.62;95379.98;106672;1275;22640;-75
2023/06/09 10:26:25;;;;;;;4.00;3.50;;;;;;;21.79;67.76;95382.02;106758;1275;22535;-75
2023/06/09 10:28:53;;;;;;;3.30;3.00;;;;;;;21.81;67.61;95378.47;106774;1275;22534;-74
2023/06/09 10:31:24;;;;;;;5.40;3.30;;;;;;;21.78;68.00;95378.30;106710;1275;22527;-74
2023/06/09 10:33:53;;;;;;;5.40;3.40;;;;;;;21.85;69.04;95376.59;106710;1275;24250;-75
2023/06/09 10:36:22;;;;;;;6.50;3.50;;;;;;;21.90;69.02;95377.17;106687;1275;23143;-74
2023/06/09 10:38:54;;;;;;;4.60;3.60;;;;;;;21.81;68.86;95377.55;107039;1275;22528;-74
2023/06/09 10:41:28;;;;;;;5.80;3.90;;;;;;;21.66;69.12;95381.79;106975;1275;22754;-75
2023/06/09 10:44:16;;;;;;;5.60;4.20;;;;;;;21.42;69.05;95378.90;106746;1275;22523;-74
2023/06/09 10:46:50;;;;;;;5.30;4.00;;;;;;;21.19;69.73;95373.20;106719;1275;26631;-74
2023/06/09 10:49:26;;;;;;;4.90;3.70;;;;;;;21.08;70.38;95371.02;106707;1275;24228;-74
2023/06/09 10:51:55;;;;;;;5.90;3.90;;;;;;;21.05;70.97;95370.52;106709;1275;22533;-74
2023/06/09 10:54:25;;;;;;;6.70;3.80;;;;;;;21.10;71.38;95368.05;106725;1275;24073;-74
2023/06/09 10:57:00;;;;;;;5.60;3.60;;;;;;;21.21;71.72;95369.07;106769;1275;25299;-74
2023/06/09 10:59:30;;;;;;;5.60;4.50;;;;;;;21.34;70.92;95367.57;106739;1275;22641;-74
2023/06/09 11:02:05;;;;;;;4.80;3.90;;;;;;;21.49;71.25;95365.55;106749;1275;24243;-74
2023/06/09 11:04:46;;;;;;;5.20;3.90;;;;;;;21.66;70.81;95367.30;106718;1275;26536;-74
2023/06/09 11:07:24;;;;;;;4.60;3.70;;;;;;;21.82;69.49;95365.89;106737;1275;22629;-74
2023/06/09 11:09:53;;;;;;;7.00;4.10;;;;;;;21.87;70.03;95364.27;106759;1275;22559;-74
2023/06/09 11:12:24;;;;;;;5.50;3.80;;;;;;;21.94;70.76;95366.87;106817;1275;22530;-75
2023/06/09 11:14:57;;;;;;;4.10;3.70;;;;;;;22.04;70.09;95364.91;106676;1275;25462;-75
2023/06/09 11:17:37;;;;;;;5.80;4.30;;;;;;;22.14;69.56;95364.45;106615;1275;25388;-75
2023/06/09 11:20:06;;;;;;;5.20;3.70;;;;;;;22.32;69.45;95362.71;106747;1257;24202;-72
2023/06/09 11:22:41;;;;;;;5.20;3.70;;;;;;;22.49;69.42;95362.09;106747;1275;24374;-72
2023/06/09 11:25:23;;;;;;;4.30;3.90;;;;;;;22.73;69.48;95356.42;106712;1275;22736;-73
2023/06/09 11:27:54;;;;;;;4.10;3.70;;;;;;;22.89;67.61;95354.62;106711;1275;24202;-74
2023/06/09 11:30:25;;;;;;;4.40;3.80;;;;;;;23.07;67.75;95344.74;106698;1275;26032;-73
2023/06/09 11:33:04;;;;;;;5.30;4.40;;;;;;;23.24;68.12;95341.49;106751;1275;24320;-74
2023/06/09 11:35:39;;;;;;;6.00;4.10;;;;;;;23.18;66.88;95343.73;106618;1275;25309;-74
2023/06/09 11:38:10;;;;;;;5.20;3.70;;;;;;;23.06;66.54;95334.95;106742;1275;22657;-74
2023/06/09 11:40:48;;;;;;;4.20;3.80;;;;;;;23.02;67.37;95326.29;106633;1275;22521;-73